createdAt,value
2022-08-30T00:01:14.083Z,70.11
2022-08-30T00:03:46.891Z,69.97
2022-08-30T00:06:15.633Z,69.75
2022-08-30T00:08:43.899Z,70.30
2022-08-30T00:11:13.578Z,69.67
2022-08-30T00:13:42.565Z,70.31
2022-08-30T00:16:09.366Z,70.25
2022-08-30T00:18:36.740Z,70.15
2022-08-30T00:21:04.136Z,70.31
2022-08-30T00:23:31.241Z,70.36
2022-08-30T00:25:58.478Z,70.12
2022-08-30T00:28:25.169Z,70.45
2022-08-30T00:30:51.847Z,70.17
2022-08-30T00:33:18.716Z,70.30
2022-08-30T00:35:45.542Z,70.71
2022-08-30T00:38:13.706Z,71.35
2022-08-30T00:40:44.291Z,71.22
2022-08-30T00:43:19.335Z,70.89
2022-08-30T00:45:47.080Z,71.52
2022-08-30T00:48:13.798Z,71.32
2022-08-30T00:50:46.442Z,71.37
2022-08-30T00:53:19.076Z,71.53
2022-08-30T00:55:46.848Z,71.36
2022-08-30T00:58:21.354Z,71.65
2022-08-30T01:00:50.506Z,71.85
2022-08-30T01:03:17.597Z,72.17
2022-08-30T01:05:45.684Z,72.24
2022-08-30T01:08:12.306Z,72.65
2022-08-30T01:10:39.190Z,72.27
2022-08-30T01:13:06.420Z,72.60
2022-08-30T01:15:34.358Z,73.03
2022-08-30T01:18:03.023Z,73.06
2022-08-30T01:20:41.813Z,72.93
2022-08-30T01:23:12.971Z,73.21
2022-08-30T01:25:42.424Z,73.13
2022-08-30T01:28:13.437Z,72.60
2022-08-30T01:30:42.805Z,72.71
2022-08-30T01:33:11.709Z,71.86
2022-08-30T01:36:12.240Z,72.35
2022-08-30T01:38:48.204Z,72.99
2022-08-30T01:41:17.221Z,72.88
2022-08-30T01:43:44.481Z,72.91
2022-08-30T01:46:12.240Z,73.49
2022-08-30T01:48:42.415Z,73.95
2022-08-30T01:51:17.177Z,74.05
2022-08-30T01:53:45.459Z,73.44
2022-08-30T01:56:14.075Z,73.67
2022-08-30T01:58:40.893Z,74.52
2022-08-30T02:01:12.617Z,74.20
2022-08-30T02:03:41.587Z,74.62
2022-08-30T02:06:16.814Z,74.53
2022-08-30T02:08:45.159Z,74.56
2022-08-30T02:11:12.732Z,73.65
2022-08-30T02:13:41.395Z,74.46
2022-08-30T02:16:10.317Z,75.20
2022-08-30T02:18:39.298Z,76.40
2022-08-30T02:21:07.125Z,76.49
2022-08-30T02:23:33.704Z,76.42
2022-08-30T02:26:00.343Z,76.52
2022-08-30T02:28:27.528Z,76.51
2022-08-30T02:30:54.295Z,76.15
2022-08-30T02:33:20.987Z,76.75
2022-08-30T02:35:47.713Z,76.82
2022-08-30T02:38:14.478Z,76.88
2022-08-30T02:40:41.535Z,76.37
2022-08-30T02:43:08.247Z,76.73
2022-08-30T02:45:34.949Z,76.51
2022-08-30T02:48:01.694Z,76.20
2022-08-30T02:50:28.870Z,76.44
2022-08-30T02:52:55.647Z,76.64
2022-08-30T02:55:22.814Z,76.21
2022-08-30T02:57:49.498Z,76.87
2022-08-30T03:00:19.120Z,77.15
2022-08-30T03:02:45.834Z,77.13
2022-08-30T03:05:13.722Z,76.33
2022-08-30T03:07:41.282Z,76.38
2022-08-30T03:10:08.795Z,76.64
2022-08-30T03:12:35.516Z,76.56
2022-08-30T03:15:06.530Z,76.21
2022-08-30T03:17:33.172Z,76.60
2022-08-30T03:20:02.235Z,76.66
2022-08-30T03:22:29.591Z,76.45
2022-08-30T03:25:01.349Z,76.36
2022-08-30T03:27:29.617Z,76.23
2022-08-30T03:29:56.802Z,76.03
2022-08-30T03:32:23.955Z,76.20
2022-08-30T03:34:50.872Z,76.01
2022-08-30T03:37:18.040Z,75.12
2022-08-30T03:39:45.586Z,75.65
2022-08-30T03:42:13.192Z,75.86
2022-08-30T03:44:39.940Z,76.35
2022-08-30T03:47:08.465Z,76.12
2022-08-30T03:49:35.708Z,75.80
2022-08-30T03:52:02.737Z,75.99
2022-08-30T03:54:29.451Z,76.12
2022-08-30T03:56:56.383Z,76.00
2022-08-30T03:59:23.373Z,76.86
2022-08-30T04:01:50.513Z,76.87
2022-08-30T04:04:20.873Z,77.22
2022-08-30T04:06:48.574Z,76.86
2022-08-30T04:09:15.229Z,76.97
2022-08-30T04:11:42.225Z,77.13
2022-08-30T04:14:09.034Z,77.32
2022-08-30T04:16:35.868Z,77.10
2022-08-30T04:19:03.332Z,77.58
2022-08-30T04:21:30.048Z,78.05
2022-08-30T04:23:57.194Z,78.21
2022-08-30T04:26:29.477Z,78.53
2022-08-30T04:28:56.698Z,78.72
2022-08-30T04:31:23.556Z,78.80
2022-08-30T04:33:50.474Z,78.10
2022-08-30T04:36:17.126Z,78.16
2022-08-30T04:38:43.988Z,78.23
2022-08-30T04:41:18.830Z,78.72
2022-08-30T04:43:47.303Z,79.13
2022-08-30T04:46:14.113Z,78.61
2022-08-30T04:48:40.936Z,79.07
2022-08-30T04:51:10.003Z,79.51
2022-08-30T04:53:37.829Z,79.68
2022-08-30T04:56:10.036Z,79.31
2022-08-30T04:58:37.066Z,78.75
2022-08-30T05:01:04.604Z,78.69
2022-08-30T05:03:31.318Z,78.60
2022-08-30T05:05:58.045Z,78.72
2022-08-30T05:08:25.057Z,78.86
2022-08-30T05:10:52.827Z,78.34
2022-08-30T05:13:21.340Z,77.91
2022-08-30T05:16:03.311Z,77.68
2022-08-30T05:18:30.032Z,77.69
2022-08-30T05:21:17.090Z,77.37
2022-08-30T05:23:44.746Z,77.14
2022-08-30T05:26:20.698Z,77.08
2022-08-30T05:28:49.647Z,76.21
2022-08-30T05:31:31.805Z,77.15
2022-08-30T05:33:59.528Z,77.46
2022-08-30T05:36:29.264Z,77.40
2022-08-30T05:38:56.739Z,78.02
2022-08-30T05:41:26.487Z,78.08
2022-08-30T05:43:55.236Z,77.43
2022-08-30T05:46:22.138Z,77.05
2022-08-30T05:48:49.633Z,77.46
2022-08-30T05:51:19.799Z,77.69
2022-08-30T05:53:48.258Z,77.70
2022-08-30T05:56:18.194Z,77.83
2022-08-30T05:58:45.328Z,77.56
2022-08-30T06:01:36.452Z,76.90
2022-08-30T06:04:04.916Z,76.24
2022-08-30T06:06:35.147Z,76.11
2022-08-30T06:09:05.816Z,76.03
2022-08-30T06:11:33.818Z,76.04
2022-08-30T06:14:00.882Z,75.96
2022-08-30T06:16:28.246Z,75.47
2022-08-30T06:18:57.358Z,75.48
2022-08-30T06:21:30.260Z,74.92
2022-08-30T06:23:57.794Z,75.07
2022-08-30T06:26:26.162Z,74.70
2022-08-30T06:28:53.284Z,74.34
2022-08-30T06:31:21.514Z,73.85
2022-08-30T06:33:48.684Z,73.95
2022-08-30T06:36:20.940Z,73.77
2022-08-30T06:38:50.532Z,73.29
2022-08-30T06:41:19.687Z,73.06
2022-08-30T06:43:49.048Z,72.34
2022-08-30T06:46:24.235Z,72.33
2022-08-30T06:48:51.796Z,72.21
2022-08-30T06:51:27.442Z,72.04
2022-08-30T06:53:54.320Z,71.42
2022-08-30T06:56:22.413Z,71.47
2022-08-30T06:58:50.393Z,70.74
2022-08-30T07:01:23.408Z,71.12
2022-08-30T07:03:51.030Z,71.00
2022-08-30T07:06:19.077Z,70.50
2022-08-30T07:08:47.236Z,70.47
2022-08-30T07:11:14.732Z,70.53
2022-08-30T07:13:41.385Z,70.58
2022-08-30T07:16:13.312Z,71.13
2022-08-30T07:18:54.969Z,71.75
2022-08-30T07:21:31.880Z,71.92
2022-08-30T07:23:59.392Z,71.96
2022-08-30T07:26:38.366Z,71.86
2022-08-30T07:29:05.316Z,71.81
2022-08-30T07:31:34.458Z,71.38
2022-08-30T07:34:01.133Z,70.92
2022-08-30T07:36:28.130Z,70.66
2022-08-30T07:38:54.859Z,70.17
2022-08-30T07:41:26.078Z,69.42
2022-08-30T07:43:53.348Z,69.23
2022-08-30T07:46:21.073Z,68.89
2022-08-30T07:48:47.796Z,68.57
2022-08-30T07:51:17.686Z,68.10
2022-08-30T07:53:44.592Z,67.61
2022-08-30T07:56:11.270Z,67.29
2022-08-30T07:58:38.261Z,66.64
2022-08-30T08:01:07.477Z,66.54
2022-08-30T08:03:35.209Z,66.47
2022-08-30T08:06:04.799Z,66.54
2022-08-30T08:08:31.708Z,65.71
2022-08-30T08:10:58.430Z,65.21
2022-08-30T08:13:27.984Z,64.89
2022-08-30T08:15:55.366Z,64.58
2022-08-30T08:18:22.047Z,63.84
2022-08-30T08:20:48.696Z,63.38
2022-08-30T08:23:16.271Z,62.98
2022-08-30T08:25:43.501Z,62.63
2022-08-30T08:28:10.322Z,62.24
2022-08-30T08:30:37.647Z,62.27
2022-08-30T08:33:05.489Z,61.82
2022-08-30T08:35:32.388Z,60.89
2022-08-30T08:37:59.562Z,60.69
2022-08-30T08:40:27.123Z,60.27
2022-08-30T08:43:08.743Z,59.15
2022-08-30T08:46:23.226Z,58.95
2022-08-30T08:49:00.457Z,58.35
2022-08-30T08:51:51.211Z,58.45
2022-08-30T08:54:24.636Z,58.24
2022-08-30T08:56:51.425Z,57.62
2022-08-30T08:59:18.455Z,57.09
2022-08-30T09:01:46.794Z,56.45
2022-08-30T09:04:22.143Z,56.35
2022-08-30T09:07:14.355Z,56.16
2022-08-30T09:09:41.632Z,55.51
2022-08-30T09:12:11.168Z,56.09
2022-08-30T09:14:46.873Z,54.64
2022-08-30T09:17:17.204Z,54.42
2022-08-30T09:19:46.570Z,54.77
2022-08-30T09:22:25.970Z,53.46
2022-08-30T09:25:12.825Z,53.59
2022-08-30T09:27:42.209Z,52.94
2022-08-30T09:30:17.085Z,52.71
2022-08-30T09:32:53.064Z,51.67
2022-08-30T09:35:24.202Z,50.88
2022-08-30T09:38:18.952Z,50.84
2022-08-30T09:40:55.422Z,50.63
2022-08-30T09:43:25.626Z,50.60
2022-08-30T09:46:01.365Z,50.48
2022-08-30T09:48:40.382Z,49.79
2022-08-30T09:51:27.692Z,49.53
2022-08-30T09:54:18.632Z,49.41
2022-08-30T09:57:33.589Z,49.43
2022-08-30T10:00:04.757Z,49.28
2022-08-30T10:02:47.740Z,49.69
2022-08-30T10:05:36.333Z,49.21
2022-08-30T10:08:44.546Z,48.82
2022-08-30T10:12:16.082Z,48.45
2022-08-30T10:15:16.320Z,47.86
2022-08-30T10:18:06.188Z,47.93
2022-08-30T10:20:48.990Z,47.85
2022-08-30T10:23:21.546Z,46.88
2022-08-30T10:25:55.044Z,46.77
2022-08-30T10:28:30.756Z,46.68
2022-08-30T10:31:05.021Z,46.41
2022-08-30T10:33:39.018Z,45.73
2022-08-30T10:36:10.705Z,45.08
2022-08-30T10:38:41.017Z,44.68
2022-08-30T10:41:20.796Z,44.34
2022-08-30T10:44:02.287Z,43.96
2022-08-30T10:46:57.943Z,43.45
2022-08-30T10:49:28.964Z,43.39
2022-08-30T10:52:22.222Z,42.80
2022-08-30T10:55:00.676Z,42.32
2022-08-30T10:57:27.404Z,42.08
2022-08-30T10:59:59.619Z,43.19
2022-08-30T11:03:03.667Z,42.86
2022-08-30T11:06:04.239Z,42.91
2022-08-30T11:08:50.002Z,41.79
2022-08-30T11:11:33.204Z,42.20
2022-08-30T11:14:05.783Z,41.95
2022-08-30T11:16:48.393Z,42.07
2022-08-30T11:19:21.155Z,42.43
2022-08-30T11:21:49.966Z,42.35
2022-08-30T11:24:23.192Z,42.74
2022-08-30T11:26:51.384Z,42.51
2022-08-30T11:29:35.924Z,41.90
2022-08-30T11:32:17.200Z,41.32
2022-08-30T11:34:46.876Z,41.10
2022-08-30T11:37:38.589Z,40.36
2022-08-30T11:40:20.695Z,40.21
2022-08-30T11:42:49.675Z,40.26
2022-08-30T11:45:22.042Z,39.77
2022-08-30T11:48:05.707Z,39.81
2022-08-30T11:50:52.881Z,39.97
2022-08-30T11:53:32.773Z,39.57
2022-08-30T11:56:10.149Z,39.06
2022-08-30T11:58:49.441Z,39.39
2022-08-30T12:01:50.052Z,38.62
2022-08-30T12:04:22.856Z,38.85
2022-08-30T12:07:00.364Z,38.72
2022-08-30T12:09:26.981Z,38.46
2022-08-30T12:12:43.094Z,39.16
2022-08-30T12:15:28.147Z,38.94
2022-08-30T12:18:18.333Z,39.32
2022-08-30T12:20:48.630Z,39.30
2022-08-30T12:23:33.087Z,39.12
2022-08-30T12:26:20.941Z,39.17
2022-08-30T12:28:49.683Z,38.44
2022-08-30T12:31:26.694Z,37.64
2022-08-30T12:33:55.637Z,37.15
2022-08-30T12:36:39.708Z,36.50
2022-08-30T12:39:13.115Z,36.62
2022-08-30T12:41:43.473Z,35.92
2022-08-30T12:44:17.105Z,35.67
2022-08-30T12:46:48.310Z,36.11
2022-08-30T12:49:19.447Z,36.32
2022-08-30T12:51:46.807Z,36.50
2022-08-30T12:54:29.311Z,37.01
2022-08-30T12:57:19.038Z,37.46
2022-08-30T12:59:59.435Z,37.66
2022-08-30T13:02:43.366Z,37.87
2022-08-30T13:05:44.933Z,38.18
2022-08-30T13:08:21.407Z,37.86
2022-08-30T13:10:54.728Z,38.37
2022-08-30T13:13:35.546Z,37.70
2022-08-30T13:16:26.265Z,36.37
2022-08-30T13:19:15.190Z,35.90
2022-08-30T13:21:52.759Z,35.70
2022-08-30T13:24:22.387Z,35.38
2022-08-30T13:26:55.508Z,34.85
2022-08-30T13:29:26.441Z,34.81
2022-08-30T13:31:53.787Z,35.36
2022-08-30T13:34:22.559Z,36.29
2022-08-30T13:36:57.227Z,36.32
2022-08-30T13:39:24.667Z,35.80
2022-08-30T13:41:51.910Z,35.75
2022-08-30T13:44:18.997Z,36.00
2022-08-30T13:46:54.160Z,34.99
2022-08-30T13:52:21.544Z,32.55
2022-08-30T13:54:53.813Z,32.42
2022-08-30T14:00:17.461Z,32.74
2022-08-30T14:02:51.603Z,32.21
2022-08-30T14:05:47.861Z,31.61
2022-08-30T14:10:59.168Z,30.31
2022-08-30T14:13:28.861Z,30.78
2022-08-30T14:18:44.649Z,31.46
2022-08-30T14:21:11.954Z,30.71
2022-08-30T14:23:38.625Z,30.18
2022-08-30T14:26:11.565Z,29.55
2022-08-30T14:28:38.326Z,28.64
2022-08-30T14:31:05.349Z,28.45
2022-08-30T14:33:33.351Z,28.97
2022-08-30T14:36:00.143Z,30.04
2022-08-30T14:38:26.823Z,29.42
2022-08-30T14:40:53.570Z,29.07
2022-08-30T14:43:20.375Z,28.77
2022-08-30T14:45:47.121Z,29.88
2022-08-30T14:48:14.981Z,30.90
2022-08-30T14:50:41.918Z,31.08
2022-08-30T14:53:08.642Z,32.04
2022-08-30T14:55:36.198Z,32.33
2022-08-30T14:58:03.065Z,32.43
2022-08-30T15:00:31.031Z,32.70
2022-08-30T15:02:57.715Z,31.90
2022-08-30T15:05:24.338Z,30.69
2022-08-30T15:07:51.515Z,29.67
2022-08-30T15:10:20.759Z,30.51
2022-08-30T15:12:48.935Z,30.23
2022-08-30T15:15:19.751Z,31.04
2022-08-30T15:17:49.471Z,31.49
2022-08-30T15:20:18.876Z,30.47
2022-08-30T15:22:46.224Z,29.51
2022-08-30T15:25:13.682Z,30.61
2022-08-30T15:27:40.282Z,29.97
2022-08-30T15:30:07.540Z,31.06
2022-08-30T15:32:34.115Z,30.92
2022-08-30T15:35:00.770Z,29.96
2022-08-30T15:37:29.963Z,30.10
2022-08-30T15:39:57.270Z,29.56
2022-08-30T15:42:23.990Z,29.23
2022-08-30T15:44:53.658Z,28.54
2022-08-30T15:47:22.110Z,28.28
2022-08-30T15:49:57.245Z,28.40
2022-08-30T15:52:26.014Z,27.99
2022-08-30T15:54:54.572Z,28.07
2022-08-30T15:57:21.783Z,27.93
2022-08-30T15:59:49.293Z,28.33
2022-08-30T16:02:15.986Z,28.47
2022-08-30T16:04:43.887Z,29.29
2022-08-30T16:07:10.679Z,29.56
2022-08-30T16:09:38.086Z,29.68
2022-08-30T16:12:05.774Z,29.91
2022-08-30T16:14:33.662Z,30.23
2022-08-30T16:17:01.294Z,30.20
2022-08-30T16:19:28.993Z,30.98
2022-08-30T16:21:56.105Z,31.16
2022-08-30T16:24:23.401Z,31.37
2022-08-30T16:26:50.338Z,31.30
2022-08-30T16:29:17.027Z,31.96
2022-08-30T16:31:44.610Z,31.78
2022-08-30T16:34:14.065Z,32.18
2022-08-30T16:36:41.962Z,32.26
2022-08-30T16:39:13.004Z,32.12
2022-08-30T16:41:41.406Z,32.28
2022-08-30T16:44:08.464Z,32.56
2022-08-30T16:46:36.414Z,32.37
2022-08-30T16:49:03.301Z,32.61
2022-08-30T16:51:31.774Z,32.63
2022-08-30T16:54:01.886Z,32.22
2022-08-30T16:56:30.669Z,32.07
2022-08-30T16:59:02.485Z,32.25
2022-08-30T17:01:31.959Z,32.78
2022-08-30T17:03:59.349Z,32.67
2022-08-30T17:06:26.162Z,32.75
2022-08-30T17:08:54.095Z,33.27
2022-08-30T17:11:23.479Z,33.38
2022-08-30T17:13:50.815Z,33.19
2022-08-30T17:16:22.431Z,33.19
2022-08-30T17:18:54.122Z,33.35
2022-08-30T17:21:20.726Z,33.40
2022-08-30T17:23:49.300Z,34.03
2022-08-30T17:26:16.407Z,34.14
2022-08-30T17:28:43.276Z,34.45
2022-08-30T17:31:11.927Z,34.70
2022-08-30T17:33:39.029Z,35.02
2022-08-30T17:36:07.277Z,34.76
2022-08-30T17:38:34.151Z,35.09
2022-08-30T17:41:06.032Z,35.17
2022-08-30T17:43:34.709Z,35.34
2022-08-30T17:46:11.648Z,35.39
2022-08-30T17:48:39.353Z,35.45
2022-08-30T17:51:07.045Z,35.39
2022-08-30T17:53:34.721Z,35.44
2022-08-30T17:56:02.341Z,35.60
2022-08-30T17:58:28.988Z,35.72
2022-08-30T18:01:12.245Z,35.72
2022-08-30T18:03:40.069Z,35.75
2022-08-30T18:06:07.211Z,36.13
2022-08-30T18:08:35.181Z,35.52
2022-08-30T18:11:07.086Z,35.83
2022-08-30T18:13:34.381Z,36.06
2022-08-30T18:16:04.546Z,35.93
2022-08-30T18:18:32.212Z,36.47
2022-08-30T18:23:46.268Z,36.45
2022-08-30T18:26:14.732Z,36.40
2022-08-30T18:28:44.489Z,36.42
2022-08-30T18:31:11.764Z,36.50
2022-08-30T18:33:38.584Z,36.94
2022-08-30T18:36:06.543Z,36.92
2022-08-30T18:38:33.183Z,36.82
2022-08-30T18:41:04.005Z,36.94
2022-08-30T18:43:31.258Z,37.01
2022-08-30T18:46:03.552Z,37.57
2022-08-30T18:48:30.602Z,37.32
2022-08-30T18:50:57.276Z,37.82
2022-08-30T18:53:28.377Z,37.83
2022-08-30T18:55:56.063Z,38.31
2022-08-30T18:58:22.731Z,38.45
2022-08-30T19:00:49.579Z,38.74
2022-08-30T19:03:18.336Z,38.85
2022-08-30T19:05:45.953Z,39.36
2022-08-30T19:08:13.685Z,39.63
2022-08-30T19:10:40.934Z,39.68
2022-08-30T19:13:08.144Z,40.22
2022-08-30T19:15:35.996Z,40.29
2022-08-30T19:18:02.898Z,40.15
2022-08-30T19:20:44.015Z,40.51
2022-08-30T19:23:11.477Z,40.90
2022-08-30T19:25:40.511Z,40.85
2022-08-30T19:28:07.989Z,40.97
2022-08-30T19:30:35.466Z,41.09
2022-08-30T19:33:02.355Z,40.90
2022-08-30T19:35:30.095Z,41.48
2022-08-30T19:37:57.745Z,41.49
2022-08-30T19:40:25.604Z,41.21
2022-08-30T19:42:53.393Z,41.65
2022-08-30T19:45:22.697Z,41.63
2022-08-30T19:47:50.702Z,41.99
2022-08-30T19:50:18.009Z,42.27
2022-08-30T19:52:51.075Z,42.45
2022-08-30T19:55:28.205Z,42.52
2022-08-30T19:57:55.565Z,42.29
2022-08-30T20:00:23.438Z,42.27
2022-08-30T20:02:50.646Z,42.39
2022-08-30T20:05:18.227Z,42.79
2022-08-30T20:07:45.238Z,42.76
2022-08-30T20:10:15.178Z,43.04
2022-08-30T20:12:44.968Z,43.10
2022-08-30T20:15:15.611Z,43.22
2022-08-30T20:18:03.171Z,42.94
2022-08-30T20:20:33.309Z,43.18
2022-08-30T20:23:00.197Z,42.66
2022-08-30T20:24:26.995Z,36.37
2022-08-30T20:25:28.877Z,42.77
2022-08-30T20:27:55.992Z,42.95
2022-08-30T20:30:22.659Z,43.07
2022-08-30T20:32:49.443Z,43.19
2022-08-30T20:35:17.749Z,43.59
2022-08-30T20:37:45.505Z,43.58
2022-08-30T20:40:15.544Z,43.49
2022-08-30T20:42:45.718Z,43.58
2022-08-30T20:45:15.597Z,43.39
2022-08-30T20:47:43.461Z,43.64
2022-08-30T20:50:15.011Z,43.69
2022-08-30T20:52:41.903Z,44.06
2022-08-30T20:55:10.262Z,43.99
2022-08-30T20:57:37.119Z,43.68
2022-08-30T21:00:07.979Z,43.93
2022-08-30T21:02:36.950Z,44.08
2022-08-30T21:05:11.539Z,43.88
2022-08-30T21:07:38.168Z,44.28
2022-08-30T21:10:05.960Z,44.59
2022-08-30T21:12:32.541Z,44.79
2022-08-30T21:14:59.237Z,45.29
2022-08-30T21:17:27.195Z,44.85
2022-08-30T21:19:55.291Z,45.18
2022-08-30T21:22:23.024Z,45.36
2022-08-30T21:24:50.215Z,45.64
2022-08-30T21:27:17.064Z,45.72
2022-08-30T21:29:44.347Z,45.71
2022-08-30T21:32:11.216Z,45.97
2022-08-30T21:34:56.357Z,46.10
2022-08-30T21:37:23.048Z,46.16
2022-08-30T21:39:50.277Z,46.15
2022-08-30T21:42:17.179Z,46.84
2022-08-30T21:44:43.845Z,46.70
2022-08-30T21:47:10.858Z,47.17
2022-08-30T21:49:37.568Z,47.33
2022-08-30T21:52:04.259Z,47.55
2022-08-30T21:54:31.424Z,47.86
2022-08-30T21:57:05.056Z,47.99
2022-08-30T21:59:32.027Z,48.53
2022-08-30T22:01:59.303Z,48.52
2022-08-30T22:04:28.150Z,48.85
2022-08-30T22:06:54.853Z,49.08
2022-08-30T22:09:23.817Z,49.22
2022-08-30T22:11:51.167Z,49.37
2022-08-30T22:14:19.501Z,49.73
2022-08-30T22:16:46.274Z,49.80
2022-08-30T22:19:13.193Z,50.00
2022-08-30T22:21:41.887Z,50.42
2022-08-30T22:24:10.843Z,50.32
2022-08-30T22:26:38.723Z,50.78
2022-08-30T22:29:06.111Z,50.80
2022-08-30T22:31:32.999Z,51.30
2022-08-30T22:33:59.887Z,51.28
2022-08-30T22:36:32.377Z,51.46
2022-08-30T22:39:01.106Z,51.41
2022-08-30T22:41:31.313Z,51.56
2022-08-30T22:43:58.743Z,51.90
2022-08-30T22:46:33.647Z,52.17
2022-08-30T22:49:02.328Z,52.12
2022-08-30T22:51:29.647Z,52.59
2022-08-30T22:53:56.641Z,52.85
2022-08-30T22:56:25.708Z,53.18
2022-08-30T22:58:54.244Z,53.23
2022-08-30T23:01:33.572Z,53.26
2022-08-30T23:04:03.798Z,53.60
2022-08-30T23:06:30.769Z,53.79
2022-08-30T23:08:57.539Z,53.91
2022-08-30T23:11:24.285Z,54.14
2022-08-30T23:13:51.433Z,54.46
2022-08-30T23:16:19.827Z,54.65
2022-08-30T23:18:47.321Z,54.87
2022-08-30T23:21:23.088Z,55.07
2022-08-30T23:24:10.245Z,55.18
2022-08-30T23:26:56.432Z,55.52
2022-08-30T23:29:41.615Z,55.83
2022-08-30T23:32:27.307Z,56.09
2022-08-30T23:35:12.477Z,56.63
2022-08-30T23:37:57.683Z,56.74
2022-08-30T23:40:42.930Z,57.19
2022-08-30T23:43:29.075Z,57.54
2022-08-30T23:46:15.196Z,57.99
2022-08-30T23:49:05.731Z,58.29
2022-08-30T23:51:51.395Z,58.70
2022-08-30T23:54:36.671Z,58.81
2022-08-30T23:57:23.334Z,59.07
